sensor_id;sensor_type;location;lat;lon;timestamp;temperature;humidity
17948;DHT22;9099;47.958;11.366;2024-02-21T00:00:48;4.40;99.90
17948;DHT22;9099;47.958;11.366;2024-02-21T00:03:15;4.50;99.90
17948;DHT22;9099;47.958;11.366;2024-02-21T00:05:42;4.60;99.90
17948;DHT22;9099;47.958;11.366;2024-02-21T00:08:09;4.60;99.90
17948;DHT22;9099;47.958;11.366;2024-02-21T00:10:36;4.70;99.90
17948;DHT22;9099;47.958;11.366;2024-02-21T00:13:03;4.70;99.90
17948;DHT22;9099;47.958;11.366;2024-02-21T00:15:30;4.80;99.90
17948;DHT22;9099;47.958;11.366;2024-02-21T00:17:58;4.80;99.90
17948;DHT22;9099;47.958;11.366;2024-02-21T00:20:25;4.80;99.90
17948;DHT22;9099;47.958;11.366;2024-02-21T00:22:52;4.80;99.90
17948;DHT22;9099;47.958;11.366;2024-02-21T00:25:20;4.80;99.90
17948;DHT22;9099;47.958;11.366;2024-02-21T00:27:47;4.90;99.90
17948;DHT22;9099;47.958;11.366;2024-02-21T00:30:14;4.90;99.90
17948;DHT22;9099;47.958;11.366;2024-02-21T00:32:40;4.90;99.90
17948;DHT22;9099;47.958;11.366;2024-02-21T00:35:09;4.90;99.90
17948;DHT22;9099;47.958;11.366;2024-02-21T00:37:36;4.80;99.90
17948;DHT22;9099;47.958;11.366;2024-02-21T00:40:04;4.80;99.90
17948;DHT22;9099;47.958;11.366;2024-02-21T00:42:32;4.80;99.90
17948;DHT22;9099;47.958;11.366;2024-02-21T00:44:59;4.90;99.90
17948;DHT22;9099;47.958;11.366;2024-02-21T00:47:26;4.90;99.90
17948;DHT22;9099;47.958;11.366;2024-02-21T00:49:53;4.90;99.90
17948;DHT22;9099;47.958;11.366;2024-02-21T00:52:22;4.90;99.90
17948;DHT22;9099;47.958;11.366;2024-02-21T00:54:49;4.90;99.90
17948;DHT22;9099;47.958;11.366;2024-02-21T00:57:15;4.80;99.90
17948;DHT22;9099;47.958;11.366;2024-02-21T00:59:42;4.80;99.90
17948;DHT22;9099;47.958;11.366;2024-02-21T01:02:09;4.80;99.90
17948;DHT22;9099;47.958;11.366;2024-02-21T01:04:36;4.70;99.90
17948;DHT22;9099;47.958;11.366;2024-02-21T01:07:03;4.70;99.90
17948;DHT22;9099;47.958;11.366;2024-02-21T01:09:32;4.80;99.90
17948;DHT22;9099;47.958;11.366;2024-02-21T01:11:59;4.70;99.90
17948;DHT22;9099;47.958;11.366;2024-02-21T01:14:25;4.70;99.90
17948;DHT22;9099;47.958;11.366;2024-02-21T01:16:53;4.70;99.90
17948;DHT22;9099;47.958;11.366;2024-02-21T01:19:20;4.70;99.90
17948;DHT22;9099;47.958;11.366;2024-02-21T01:21:47;4.80;99.90
17948;DHT22;9099;47.958;11.366;2024-02-21T01:24:14;4.70;99.90
17948;DHT22;9099;47.958;11.366;2024-02-21T01:26:42;4.70;99.90
17948;DHT22;9099;47.958;11.366;2024-02-21T01:29:09;4.70;99.90
17948;DHT22;9099;47.958;11.366;2024-02-21T01:31:36;4.80;99.90
17948;DHT22;9099;47.958;11.366;2024-02-21T01:34:03;4.80;99.90
17948;DHT22;9099;47.958;11.366;2024-02-21T01:36:30;4.80;99.90
17948;DHT22;9099;47.958;11.366;2024-02-21T01:38:57;4.80;99.90
17948;DHT22;9099;47.958;11.366;2024-02-21T01:41:24;4.80;99.90
17948;DHT22;9099;47.958;11.366;2024-02-21T01:43:52;4.80;99.90
17948;DHT22;9099;47.958;11.366;2024-02-21T01:46:19;4.80;99.90
17948;DHT22;9099;47.958;11.366;2024-02-21T01:48:46;4.80;99.90
17948;DHT22;9099;47.958;11.366;2024-02-21T01:51:13;4.90;99.90
17948;DHT22;9099;47.958;11.366;2024-02-21T01:53:43;4.90;99.90
17948;DHT22;9099;47.958;11.366;2024-02-21T01:56:12;5.00;99.90
17948;DHT22;9099;47.958;11.366;2024-02-21T01:58:40;5.00;99.90
17948;DHT22;9099;47.958;11.366;2024-02-21T02:01:10;5.00;99.90
17948;DHT22;9099;47.958;11.366;2024-02-21T02:03:37;5.00;99.90
17948;DHT22;9099;47.958;11.366;2024-02-21T02:06:05;5.10;99.90
17948;DHT22;9099;47.958;11.366;2024-02-21T02:08:33;5.10;99.90
17948;DHT22;9099;47.958;11.366;2024-02-21T02:11:00;5.10;99.90
17948;DHT22;9099;47.958;11.366;2024-02-21T02:13:27;5.10;99.90
17948;DHT22;9099;47.958;11.366;2024-02-21T02:15:54;5.00;99.90
17948;DHT22;9099;47.958;11.366;2024-02-21T02:18:23;5.10;99.90
17948;DHT22;9099;47.958;11.366;2024-02-21T02:20:50;5.10;99.90
17948;DHT22;9099;47.958;11.366;2024-02-21T02:23:22;5.10;99.90
17948;DHT22;9099;47.958;11.366;2024-02-21T02:25:50;5.10;99.90
17948;DHT22;9099;47.958;11.366;2024-02-21T02:28:18;5.20;99.90
17948;DHT22;9099;47.958;11.366;2024-02-21T02:30:45;5.10;99.90
17948;DHT22;9099;47.958;11.366;2024-02-21T02:33:12;5.10;99.90
17948;DHT22;9099;47.958;11.366;2024-02-21T02:35:39;5.10;99.90
17948;DHT22;9099;47.958;11.366;2024-02-21T02:38:06;5.10;99.90
17948;DHT22;9099;47.958;11.366;2024-02-21T02:40:36;5.10;99.90
17948;DHT22;9099;47.958;11.366;2024-02-21T02:43:03;5.10;99.90
17948;DHT22;9099;47.958;11.366;2024-02-21T02:45:30;5.10;99.90
17948;DHT22;9099;47.958;11.366;2024-02-21T02:47:57;5.00;99.90
17948;DHT22;9099;47.958;11.366;2024-02-21T02:50:24;5.00;99.90
17948;DHT22;9099;47.958;11.366;2024-02-21T02:52:51;4.90;99.90
17948;DHT22;9099;47.958;11.366;2024-02-21T02:55:18;4.90;99.90
17948;DHT22;9099;47.958;11.366;2024-02-21T02:57:47;4.90;99.90
17948;DHT22;9099;47.958;11.366;2024-02-21T03:00:15;4.90;99.90
17948;DHT22;9099;47.958;11.366;2024-02-21T03:02:42;4.90;99.90
17948;DHT22;9099;47.958;11.366;2024-02-21T03:05:14;5.00;99.90
17948;DHT22;9099;47.958;11.366;2024-02-21T03:07:41;5.00;99.90
17948;DHT22;9099;47.958;11.366;2024-02-21T03:10:09;5.00;99.90
17948;DHT22;9099;47.958;11.366;2024-02-21T03:12:36;4.90;99.90
17948;DHT22;9099;47.958;11.366;2024-02-21T03:15:06;4.90;99.90
17948;DHT22;9099;47.958;11.366;2024-02-21T03:17:33;4.90;99.90
17948;DHT22;9099;47.958;11.366;2024-02-21T03:20:01;4.90;99.90
17948;DHT22;9099;47.958;11.366;2024-02-21T03:22:30;4.90;99.90
17948;DHT22;9099;47.958;11.366;2024-02-21T03:24:57;4.90;99.90
17948;DHT22;9099;47.958;11.366;2024-02-21T03:27:24;4.70;99.90
17948;DHT22;9099;47.958;11.366;2024-02-21T03:29:51;4.70;99.90
17948;DHT22;9099;47.958;11.366;2024-02-21T03:32:19;4.70;99.90
17948;DHT22;9099;47.958;11.366;2024-02-21T03:34:46;4.70;99.90
17948;DHT22;9099;47.958;11.366;2024-02-21T03:37:13;4.70;99.90
17948;DHT22;9099;47.958;11.366;2024-02-21T03:39:40;4.70;99.90
17948;DHT22;9099;47.958;11.366;2024-02-21T03:42:07;4.60;99.90
17948;DHT22;9099;47.958;11.366;2024-02-21T03:44:34;4.60;99.90
17948;DHT22;9099;47.958;11.366;2024-02-21T03:47:01;4.70;99.90
17948;DHT22;9099;47.958;11.366;2024-02-21T03:49:29;4.70;99.90
17948;DHT22;9099;47.958;11.366;2024-02-21T03:51:56;4.80;99.90
17948;DHT22;9099;47.958;11.366;2024-02-21T03:54:24;4.80;99.90
17948;DHT22;9099;47.958;11.366;2024-02-21T03:56:51;4.80;99.90
17948;DHT22;9099;47.958;11.366;2024-02-21T03:59:18;4.70;99.90
17948;DHT22;9099;47.958;11.366;2024-02-21T04:01:44;4.80;99.90
17948;DHT22;9099;47.958;11.366;2024-02-21T04:04:11;4.80;99.90
17948;DHT22;9099;47.958;11.366;2024-02-21T04:06:47;4.80;99.90
17948;DHT22;9099;47.958;11.366;2024-02-21T04:09:14;4.80;99.90
17948;DHT22;9099;47.958;11.366;2024-02-21T04:11:41;4.80;99.90
17948;DHT22;9099;47.958;11.366;2024-02-21T04:14:08;4.90;99.90
17948;DHT22;9099;47.958;11.366;2024-02-21T04:16:37;4.90;99.90
17948;DHT22;9099;47.958;11.366;2024-02-21T04:19:04;4.80;99.90
17948;DHT22;9099;47.958;11.366;2024-02-21T04:21:31;4.80;99.90
17948;DHT22;9099;47.958;11.366;2024-02-21T04:24:00;4.80;99.90
17948;DHT22;9099;47.958;11.366;2024-02-21T04:26:27;4.80;99.90
17948;DHT22;9099;47.958;11.366;2024-02-21T04:28:54;4.80;99.90
17948;DHT22;9099;47.958;11.366;2024-02-21T04:31:21;4.80;99.90
17948;DHT22;9099;47.958;11.366;2024-02-21T04:33:48;4.70;99.90
17948;DHT22;9099;47.958;11.366;2024-02-21T04:36:15;4.80;99.90
17948;DHT22;9099;47.958;11.366;2024-02-21T04:38:42;4.80;99.90
17948;DHT22;9099;47.958;11.366;2024-02-21T04:41:10;4.80;99.90
17948;DHT22;9099;47.958;11.366;2024-02-21T04:43:37;4.70;99.90
17948;DHT22;9099;47.958;11.366;2024-02-21T04:46:04;4.70;99.90
17948;DHT22;9099;47.958;11.366;2024-02-21T04:48:31;4.60;99.90
17948;DHT22;9099;47.958;11.366;2024-02-21T04:50:58;4.50;99.90
17948;DHT22;9099;47.958;11.366;2024-02-21T04:53:25;4.50;99.90
17948;DHT22;9099;47.958;11.366;2024-02-21T04:55:52;4.40;99.90
17948;DHT22;9099;47.958;11.366;2024-02-21T04:58:20;4.40;99.90
17948;DHT22;9099;47.958;11.366;2024-02-21T05:00:47;4.30;99.90
17948;DHT22;9099;47.958;11.366;2024-02-21T05:03:14;4.20;99.90
17948;DHT22;9099;47.958;11.366;2024-02-21T05:05:41;4.10;99.90
17948;DHT22;9099;47.958;11.366;2024-02-21T05:08:10;4.10;99.90
17948;DHT22;9099;47.958;11.366;2024-02-21T05:10:37;4.10;99.90
17948;DHT22;9099;47.958;11.366;2024-02-21T05:13:04;4.10;99.90
17948;DHT22;9099;47.958;11.366;2024-02-21T05:15:33;4.10;99.90
17948;DHT22;9099;47.958;11.366;2024-02-21T05:18:00;4.10;99.90
17948;DHT22;9099;47.958;11.366;2024-02-21T05:20:26;4.00;99.90
17948;DHT22;9099;47.958;11.366;2024-02-21T05:22:53;3.90;99.90
17948;DHT22;9099;47.958;11.366;2024-02-21T05:25:20;4.00;99.90
17948;DHT22;9099;47.958;11.366;2024-02-21T05:27:47;4.00;99.90
17948;DHT22;9099;47.958;11.366;2024-02-21T05:30:14;4.00;99.90
17948;DHT22;9099;47.958;11.366;2024-02-21T05:32:43;4.00;99.90
17948;DHT22;9099;47.958;11.366;2024-02-21T05:35:10;3.90;99.90
17948;DHT22;9099;47.958;11.366;2024-02-21T05:37:37;3.80;99.90
17948;DHT22;9099;47.958;11.366;2024-02-21T05:40:05;3.80;99.90
17948;DHT22;9099;47.958;11.366;2024-02-21T05:42:32;3.80;99.90
17948;DHT22;9099;47.958;11.366;2024-02-21T05:44:59;3.80;99.90
17948;DHT22;9099;47.958;11.366;2024-02-21T05:47:26;3.80;99.90
17948;DHT22;9099;47.958;11.366;2024-02-21T05:49:54;3.80;99.90
17948;DHT22;9099;47.958;11.366;2024-02-21T05:52:21;3.80;99.90
17948;DHT22;9099;47.958;11.366;2024-02-21T05:54:48;3.70;99.90
17948;DHT22;9099;47.958;11.366;2024-02-21T05:57:17;3.70;99.90
17948;DHT22;9099;47.958;11.366;2024-02-21T05:59:44;3.60;99.90
17948;DHT22;9099;47.958;11.366;2024-02-21T06:02:11;3.60;99.90
17948;DHT22;9099;47.958;11.366;2024-02-21T06:04:38;3.60;99.90
17948;DHT22;9099;47.958;11.366;2024-02-21T06:07:07;3.50;99.90
17948;DHT22;9099;47.958;11.366;2024-02-21T06:09:34;3.50;99.90
17948;DHT22;9099;47.958;11.366;2024-02-21T06:12:00;3.50;99.90
17948;DHT22;9099;47.958;11.366;2024-02-21T06:14:27;3.50;99.90
17948;DHT22;9099;47.958;11.366;2024-02-21T06:16:54;3.50;99.90
17948;DHT22;9099;47.958;11.366;2024-02-21T06:19:21;3.40;99.90
17948;DHT22;9099;47.958;11.366;2024-02-21T06:21:48;3.40;99.90
17948;DHT22;9099;47.958;11.366;2024-02-21T06:24:16;3.40;99.90
17948;DHT22;9099;47.958;11.366;2024-02-21T06:26:43;3.50;99.90
17948;DHT22;9099;47.958;11.366;2024-02-21T06:29:11;3.60;99.90
17948;DHT22;9099;47.958;11.366;2024-02-21T06:31:39;3.80;99.90
17948;DHT22;9099;47.958;11.366;2024-02-21T06:34:06;3.90;99.90
17948;DHT22;9099;47.958;11.366;2024-02-21T06:36:33;4.00;99.90
17948;DHT22;9099;47.958;11.366;2024-02-21T06:39:00;4.10;99.90
17948;DHT22;9099;47.958;11.366;2024-02-21T06:41:28;4.30;99.90
17948;DHT22;9099;47.958;11.366;2024-02-21T06:43:56;4.60;99.90
17948;DHT22;9099;47.958;11.366;2024-02-21T06:46:23;4.80;99.90
17948;DHT22;9099;47.958;11.366;2024-02-21T06:48:51;5.30;99.90
17948;DHT22;9099;47.958;11.366;2024-02-21T06:51:18;5.80;99.90
17948;DHT22;9099;47.958;11.366;2024-02-21T06:53:44;5.90;99.90
17948;DHT22;9099;47.958;11.366;2024-02-21T06:56:11;5.80;99.90
17948;DHT22;9099;47.958;11.366;2024-02-21T06:58:40;5.70;99.90
17948;DHT22;9099;47.958;11.366;2024-02-21T07:01:07;5.50;99.90
17948;DHT22;9099;47.958;11.366;2024-02-21T07:03:35;5.30;99.90
17948;DHT22;9099;47.958;11.366;2024-02-21T07:06:03;5.20;99.90
17948;DHT22;9099;47.958;11.366;2024-02-21T07:08:30;5.20;99.90
17948;DHT22;9099;47.958;11.366;2024-02-21T07:10:56;5.20;99.90
17948;DHT22;9099;47.958;11.366;2024-02-21T07:13:23;5.10;99.90
17948;DHT22;9099;47.958;11.366;2024-02-21T07:15:51;5.10;99.90
17948;DHT22;9099;47.958;11.366;2024-02-21T07:18:18;5.10;99.90
17948;DHT22;9099;47.958;11.366;2024-02-21T07:20:45;5.30;99.90
17948;DHT22;9099;47.958;11.366;2024-02-21T07:23:12;5.90;99.90
17948;DHT22;9099;47.958;11.366;2024-02-21T07:25:39;6.40;99.90
17948;DHT22;9099;47.958;11.366;2024-02-21T07:28:06;6.70;99.90
17948;DHT22;9099;47.958;11.366;2024-02-21T07:30:34;6.80;99.90
17948;DHT22;9099;47.958;11.366;2024-02-21T07:33:03;6.70;99.90
17948;DHT22;9099;47.958;11.366;2024-02-21T07:35:30;6.60;99.90
17948;DHT22;9099;47.958;11.366;2024-02-21T07:37:57;6.50;99.90
17948;DHT22;9099;47.958;11.366;2024-02-21T07:40:23;6.40;99.90
17948;DHT22;9099;47.958;11.366;2024-02-21T07:42:50;6.40;99.90
17948;DHT22;9099;47.958;11.366;2024-02-21T07:45:17;6.30;99.90
17948;DHT22;9099;47.958;11.366;2024-02-21T07:47:47;6.20;99.90
17948;DHT22;9099;47.958;11.366;2024-02-21T07:50:15;6.10;99.90
17948;DHT22;9099;47.958;11.366;2024-02-21T07:52:42;6.00;99.90
17948;DHT22;9099;47.958;11.366;2024-02-21T07:55:09;6.10;99.90
17948;DHT22;9099;47.958;11.366;2024-02-21T07:57:37;6.20;99.90
17948;DHT22;9099;47.958;11.366;2024-02-21T08:00:05;6.40;99.90
17948;DHT22;9099;47.958;11.366;2024-02-21T08:02:35;6.90;99.90
17948;DHT22;9099;47.958;11.366;2024-02-21T08:05:03;7.60;99.90
17948;DHT22;9099;47.958;11.366;2024-02-21T08:07:31;8.60;99.90
17948;DHT22;9099;47.958;11.366;2024-02-21T08:09:58;10.10;99.90
17948;DHT22;9099;47.958;11.366;2024-02-21T08:12:25;11.30;99.90
17948;DHT22;9099;47.958;11.366;2024-02-21T08:14:52;12.50;99.90
17948;DHT22;9099;47.958;11.366;2024-02-21T08:17:19;13.60;99.90
17948;DHT22;9099;47.958;11.366;2024-02-21T08:19:47;14.90;99.90
17948;DHT22;9099;47.958;11.366;2024-02-21T08:22:15;16.10;99.90
17948;DHT22;9099;47.958;11.366;2024-02-21T08:24:43;16.80;99.90
17948;DHT22;9099;47.958;11.366;2024-02-21T08:27:10;18.00;99.90
17948;DHT22;9099;47.958;11.366;2024-02-21T08:29:37;19.10;99.90
17948;DHT22;9099;47.958;11.366;2024-02-21T08:32:04;20.10;99.90
17948;DHT22;9099;47.958;11.366;2024-02-21T08:34:31;20.60;99.90
17948;DHT22;9099;47.958;11.366;2024-02-21T08:36:59;20.80;99.90
17948;DHT22;9099;47.958;11.366;2024-02-21T08:39:26;21.40;99.90
17948;DHT22;9099;47.958;11.366;2024-02-21T08:41:55;21.90;99.60
17948;DHT22;9099;47.958;11.366;2024-02-21T08:44:23;22.00;98.30
17948;DHT22;9099;47.958;11.366;2024-02-21T08:46:51;21.90;97.00
17948;DHT22;9099;47.958;11.366;2024-02-21T08:49:18;21.50;98.70
17948;DHT22;9099;47.958;11.366;2024-02-21T08:51:45;22.00;99.90
17948;DHT22;9099;47.958;11.366;2024-02-21T08:54:12;23.00;98.90
17948;DHT22;9099;47.958;11.366;2024-02-21T08:56:39;23.00;96.40
17948;DHT22;9099;47.958;11.366;2024-02-21T08:59:07;23.50;96.10
17948;DHT22;9099;47.958;11.366;2024-02-21T09:01:34;23.80;97.00
17948;DHT22;9099;47.958;11.366;2024-02-21T09:04:01;23.70;95.50
17948;DHT22;9099;47.958;11.366;2024-02-21T09:06:28;24.00;93.30
17948;DHT22;9099;47.958;11.366;2024-02-21T09:08:56;23.50;94.20
17948;DHT22;9099;47.958;11.366;2024-02-21T09:11:23;23.80;93.40
17948;DHT22;9099;47.958;11.366;2024-02-21T09:13:50;24.10;94.30
17948;DHT22;9099;47.958;11.366;2024-02-21T09:16:18;24.70;91.40
17948;DHT22;9099;47.958;11.366;2024-02-21T09:18:45;24.60;91.40
17948;DHT22;9099;47.958;11.366;2024-02-21T09:21:12;23.90;85.60
17948;DHT22;9099;47.958;11.366;2024-02-21T09:23:39;23.30;87.20
17948;DHT22;9099;47.958;11.366;2024-02-21T09:26:06;23.10;90.90
17948;DHT22;9099;47.958;11.366;2024-02-21T09:28:35;23.10;88.80
17948;DHT22;9099;47.958;11.366;2024-02-21T09:31:02;23.60;88.90
17948;DHT22;9099;47.958;11.366;2024-02-21T09:33:31;24.00;88.50
17948;DHT22;9099;47.958;11.366;2024-02-21T09:35:58;24.90;84.50
17948;DHT22;9099;47.958;11.366;2024-02-21T09:38:25;24.70;84.20
17948;DHT22;9099;47.958;11.366;2024-02-21T09:40:58;24.60;80.60
17948;DHT22;9099;47.958;11.366;2024-02-21T09:43:26;24.70;80.20
17948;DHT22;9099;47.958;11.366;2024-02-21T09:45:55;24.90;78.60
17948;DHT22;9099;47.958;11.366;2024-02-21T09:48:34;24.60;78.40
17948;DHT22;9099;47.958;11.366;2024-02-21T09:51:04;25.00;79.10
17948;DHT22;9099;47.958;11.366;2024-02-21T09:53:32;25.30;77.20
17948;DHT22;9099;47.958;11.366;2024-02-21T09:56:00;25.00;74.10
17948;DHT22;9099;47.958;11.366;2024-02-21T09:58:29;24.60;75.10
17948;DHT22;9099;47.958;11.366;2024-02-21T10:00:56;24.90;76.60
17948;DHT22;9099;47.958;11.366;2024-02-21T10:03:25;24.80;76.90
17948;DHT22;9099;47.958;11.366;2024-02-21T10:05:54;24.70;73.20
17948;DHT22;9099;47.958;11.366;2024-02-21T10:08:20;24.20;72.70
17948;DHT22;9099;47.958;11.366;2024-02-21T10:10:47;23.80;76.80
17948;DHT22;9099;47.958;11.366;2024-02-21T10:13:27;23.70;78.30
17948;DHT22;9099;47.958;11.366;2024-02-21T10:16:01;23.70;75.20
17948;DHT22;9099;47.958;11.366;2024-02-21T10:18:29;23.00;74.90
17948;DHT22;9099;47.958;11.366;2024-02-21T10:21:04;22.50;75.80
17948;DHT22;9099;47.958;11.366;2024-02-21T10:23:42;22.40;76.50
17948;DHT22;9099;47.958;11.366;2024-02-21T10:26:09;22.60;75.10
17948;DHT22;9099;47.958;11.366;2024-02-21T10:28:37;22.70;77.60
17948;DHT22;9099;47.958;11.366;2024-02-21T10:31:07;23.10;76.30
17948;DHT22;9099;47.958;11.366;2024-02-21T10:33:34;23.20;75.10
17948;DHT22;9099;47.958;11.366;2024-02-21T10:36:10;23.00;77.90
17948;DHT22;9099;47.958;11.366;2024-02-21T10:38:38;22.50;76.80
17948;DHT22;9099;47.958;11.366;2024-02-21T10:41:05;22.40;79.80
17948;DHT22;9099;47.958;11.366;2024-02-21T10:43:38;22.50;75.70
17948;DHT22;9099;47.958;11.366;2024-02-21T10:46:08;22.60;76.00
17948;DHT22;9099;47.958;11.366;2024-02-21T10:48:43;22.60;76.10
17948;DHT22;9099;47.958;11.366;2024-02-21T10:51:17;22.20;80.90
17948;DHT22;9099;47.958;11.366;2024-02-21T10:53:47;22.00;75.30
17948;DHT22;9099;47.958;11.366;2024-02-21T10:56:22;21.60;78.40
17948;DHT22;9099;47.958;11.366;2024-02-21T10:58:50;21.50;80.20
17948;DHT22;9099;47.958;11.366;2024-02-21T11:01:18;21.30;78.60
17948;DHT22;9099;47.958;11.366;2024-02-21T11:03:47;21.60;77.20
17948;DHT22;9099;47.958;11.366;2024-02-21T11:06:18;21.60;72.70
17948;DHT22;9099;47.958;11.366;2024-02-21T11:08:47;21.50;73.50
17948;DHT22;9099;47.958;11.366;2024-02-21T11:11:15;21.50;76.00
17948;DHT22;9099;47.958;11.366;2024-02-21T11:13:44;21.60;72.90
17948;DHT22;9099;47.958;11.366;2024-02-21T11:16:20;20.90;72.70
17948;DHT22;9099;47.958;11.366;2024-02-21T11:18:48;20.30;74.10
17948;DHT22;9099;47.958;11.366;2024-02-21T11:21:16;19.80;74.70
17948;DHT22;9099;47.958;11.366;2024-02-21T11:23:43;20.00;76.30
17948;DHT22;9099;47.958;11.366;2024-02-21T11:26:10;20.20;75.20
17948;DHT22;9099;47.958;11.366;2024-02-21T11:28:56;20.10;76.70
17948;DHT22;9099;47.958;11.366;2024-02-21T11:31:23;20.00;76.40
17948;DHT22;9099;47.958;11.366;2024-02-21T11:33:51;19.70;74.70
17948;DHT22;9099;47.958;11.366;2024-02-21T11:36:25;19.70;74.00
17948;DHT22;9099;47.958;11.366;2024-02-21T11:38:52;19.40;78.40
17948;DHT22;9099;47.958;11.366;2024-02-21T11:41:19;19.10;76.30
17948;DHT22;9099;47.958;11.366;2024-02-21T11:43:48;19.00;76.80
17948;DHT22;9099;47.958;11.366;2024-02-21T11:46:15;18.90;75.30
17948;DHT22;9099;47.958;11.366;2024-02-21T11:48:42;18.80;73.00
17948;DHT22;9099;47.958;11.366;2024-02-21T11:51:10;18.80;72.50
17948;DHT22;9099;47.958;11.366;2024-02-21T11:53:38;18.70;71.90
17948;DHT22;9099;47.958;11.366;2024-02-21T11:56:06;18.70;71.00
17948;DHT22;9099;47.958;11.366;2024-02-21T11:58:33;18.80;69.30
17948;DHT22;9099;47.958;11.366;2024-02-21T12:01:00;18.60;68.40
17948;DHT22;9099;47.958;11.366;2024-02-21T12:03:28;18.50;72.50
17948;DHT22;9099;47.958;11.366;2024-02-21T12:05:55;18.60;71.50
17948;DHT22;9099;47.958;11.366;2024-02-21T12:08:24;18.60;68.40
17948;DHT22;9099;47.958;11.366;2024-02-21T12:10:52;18.50;72.10
17948;DHT22;9099;47.958;11.366;2024-02-21T12:13:22;18.60;68.90
17948;DHT22;9099;47.958;11.366;2024-02-21T12:15:49;18.60;70.50
17948;DHT22;9099;47.958;11.366;2024-02-21T12:18:16;18.80;73.00
17948;DHT22;9099;47.958;11.366;2024-02-21T12:20:43;19.20;70.30
17948;DHT22;9099;47.958;11.366;2024-02-21T12:23:12;19.20;71.60
17948;DHT22;9099;47.958;11.366;2024-02-21T12:25:39;19.20;72.40
17948;DHT22;9099;47.958;11.366;2024-02-21T12:28:07;19.30;70.70
17948;DHT22;9099;47.958;11.366;2024-02-21T12:30:34;19.30;70.60
17948;DHT22;9099;47.958;11.366;2024-02-21T12:33:05;19.10;71.00
17948;DHT22;9099;47.958;11.366;2024-02-21T12:35:32;19.10;73.20
17948;DHT22;9099;47.958;11.366;2024-02-21T12:37:59;19.20;74.60
17948;DHT22;9099;47.958;11.366;2024-02-21T12:40:27;19.40;75.10
17948;DHT22;9099;47.958;11.366;2024-02-21T12:42:58;19.20;70.10
17948;DHT22;9099;47.958;11.366;2024-02-21T12:45:27;19.00;72.80
17948;DHT22;9099;47.958;11.366;2024-02-21T12:47:54;19.00;73.30
17948;DHT22;9099;47.958;11.366;2024-02-21T12:50:21;18.90;71.30
17948;DHT22;9099;47.958;11.366;2024-02-21T12:52:48;18.90;72.50
17948;DHT22;9099;47.958;11.366;2024-02-21T12:55:16;18.50;74.20
17948;DHT22;9099;47.958;11.366;2024-02-21T12:57:43;18.40;74.60
17948;DHT22;9099;47.958;11.366;2024-02-21T13:00:10;18.50;75.70
17948;DHT22;9099;47.958;11.366;2024-02-21T13:02:39;18.60;75.10
17948;DHT22;9099;47.958;11.366;2024-02-21T13:05:07;18.60;74.00
17948;DHT22;9099;47.958;11.366;2024-02-21T13:07:34;18.70;75.10
17948;DHT22;9099;47.958;11.366;2024-02-21T13:10:01;18.70;77.70
17948;DHT22;9099;47.958;11.366;2024-02-21T13:12:29;18.70;74.00
17948;DHT22;9099;47.958;11.366;2024-02-21T13:14:56;18.60;76.50
17948;DHT22;9099;47.958;11.366;2024-02-21T13:17:22;18.50;78.30
17948;DHT22;9099;47.958;11.366;2024-02-21T13:19:51;18.50;76.20
17948;DHT22;9099;47.958;11.366;2024-02-21T13:22:18;18.60;76.20
17948;DHT22;9099;47.958;11.366;2024-02-21T13:24:47;18.50;75.60
17948;DHT22;9099;47.958;11.366;2024-02-21T13:27:15;18.40;78.20
17948;DHT22;9099;47.958;11.366;2024-02-21T13:29:42;18.30;78.40
17948;DHT22;9099;47.958;11.366;2024-02-21T13:32:09;18.30;78.70
17948;DHT22;9099;47.958;11.366;2024-02-21T13:34:36;18.40;78.30
17948;DHT22;9099;47.958;11.366;2024-02-21T13:37:05;18.40;77.40
17948;DHT22;9099;47.958;11.366;2024-02-21T13:39:35;18.40;76.60
17948;DHT22;9099;47.958;11.366;2024-02-21T13:42:02;18.20;76.50
17948;DHT22;9099;47.958;11.366;2024-02-21T13:44:31;18.30;77.10
17948;DHT22;9099;47.958;11.366;2024-02-21T13:46:58;18.30;77.80
17948;DHT22;9099;47.958;11.366;2024-02-21T13:49:25;18.30;78.30
17948;DHT22;9099;47.958;11.366;2024-02-21T13:51:54;18.20;76.40
17948;DHT22;9099;47.958;11.366;2024-02-21T13:54:22;18.10;79.00
17948;DHT22;9099;47.958;11.366;2024-02-21T13:56:50;18.10;80.60
17948;DHT22;9099;47.958;11.366;2024-02-21T13:59:17;18.10;79.80
17948;DHT22;9099;47.958;11.366;2024-02-21T14:01:44;18.00;80.90
17948;DHT22;9099;47.958;11.366;2024-02-21T14:04:11;18.00;79.50
17948;DHT22;9099;47.958;11.366;2024-02-21T14:06:38;18.20;79.40
17948;DHT22;9099;47.958;11.366;2024-02-21T14:09:08;18.30;77.90
17948;DHT22;9099;47.958;11.366;2024-02-21T14:11:38;18.30;79.10
17948;DHT22;9099;47.958;11.366;2024-02-21T14:14:05;18.40;78.90
17948;DHT22;9099;47.958;11.366;2024-02-21T14:16:32;18.30;80.60
17948;DHT22;9099;47.958;11.366;2024-02-21T14:18:59;18.50;78.30
17948;DHT22;9099;47.958;11.366;2024-02-21T14:21:28;18.60;79.40
17948;DHT22;9099;47.958;11.366;2024-02-21T14:23:55;18.60;80.30
17948;DHT22;9099;47.958;11.366;2024-02-21T14:26:24;18.50;79.10
17948;DHT22;9099;47.958;11.366;2024-02-21T14:28:52;18.40;79.00
17948;DHT22;9099;47.958;11.366;2024-02-21T14:31:19;18.30;78.80
17948;DHT22;9099;47.958;11.366;2024-02-21T14:33:46;18.10;79.20
17948;DHT22;9099;47.958;11.366;2024-02-21T14:36:14;17.90;79.30
17948;DHT22;9099;47.958;11.366;2024-02-21T14:38:41;17.60;80.90
17948;DHT22;9099;47.958;11.366;2024-02-21T14:41:09;17.20;80.40
17948;DHT22;9099;47.958;11.366;2024-02-21T14:43:37;17.10;82.10
17948;DHT22;9099;47.958;11.366;2024-02-21T14:46:06;17.10;81.40
17948;DHT22;9099;47.958;11.366;2024-02-21T14:48:32;17.10;81.30
17948;DHT22;9099;47.958;11.366;2024-02-21T14:51:00;17.20;82.20
17948;DHT22;9099;47.958;11.366;2024-02-21T14:53:27;17.10;81.50
17948;DHT22;9099;47.958;11.366;2024-02-21T14:55:54;17.00;81.10
17948;DHT22;9099;47.958;11.366;2024-02-21T14:58:23;16.80;83.70
17948;DHT22;9099;47.958;11.366;2024-02-21T15:00:50;16.70;84.70
17948;DHT22;9099;47.958;11.366;2024-02-21T15:03:18;16.60;84.70
17948;DHT22;9099;47.958;11.366;2024-02-21T15:05:46;16.50;84.20
17948;DHT22;9099;47.958;11.366;2024-02-21T15:08:13;16.30;84.50
17948;DHT22;9099;47.958;11.366;2024-02-21T15:10:42;16.20;85.20
17948;DHT22;9099;47.958;11.366;2024-02-21T15:13:09;16.10;85.50
17948;DHT22;9099;47.958;11.366;2024-02-21T15:15:36;16.10;87.80
17948;DHT22;9099;47.958;11.366;2024-02-21T15:18:03;15.90;88.40
17948;DHT22;9099;47.958;11.366;2024-02-21T15:20:31;15.90;86.30
17948;DHT22;9099;47.958;11.366;2024-02-21T15:22:58;15.80;86.00
17948;DHT22;9099;47.958;11.366;2024-02-21T15:25:26;15.60;87.60
17948;DHT22;9099;47.958;11.366;2024-02-21T15:27:53;15.60;89.00
17948;DHT22;9099;47.958;11.366;2024-02-21T15:30:20;15.50;88.00
17948;DHT22;9099;47.958;11.366;2024-02-21T15:32:47;15.40;87.70
17948;DHT22;9099;47.958;11.366;2024-02-21T15:35:14;15.30;88.20
17948;DHT22;9099;47.958;11.366;2024-02-21T15:37:42;15.20;87.00
17948;DHT22;9099;47.958;11.366;2024-02-21T15:40:09;15.10;87.00
17948;DHT22;9099;47.958;11.366;2024-02-21T15:42:36;15.10;88.70